sensor_id;sensor_type;location;lat;lon;timestamp;P1;durP1;ratioP1;P2;durP2;ratioP2
70761;SDS011;58360;0.000;0.000;2023-07-09T00:00:12;8.90;;;6.20;;
70761;SDS011;58360;0.000;0.000;2023-07-09T00:02:44;13.00;;;6.90;;
70761;SDS011;58360;0.000;0.000;2023-07-09T00:05:14;12.35;;;6.82;;
70761;SDS011;58360;0.000;0.000;2023-07-09T00:07:42;9.88;;;6.30;;
70761;SDS011;58360;0.000;0.000;2023-07-09T00:10:14;13.13;;;7.22;;
70761;SDS011;58360;0.000;0.000;2023-07-09T00:12:44;12.15;;;7.32;;
70761;SDS011;58360;0.000;0.000;2023-07-09T00:15:11;12.52;;;7.10;;
70761;SDS011;58360;0.000;0.000;2023-07-09T00:17:41;10.90;;;6.82;;
70761;SDS011;58360;0.000;0.000;2023-07-09T00:20:12;11.65;;;6.75;;
70761;SDS011;58360;0.000;0.000;2023-07-09T00:22:42;12.13;;;7.13;;
70761;SDS011;58360;0.000;0.000;2023-07-09T00:25:13;10.52;;;6.55;;
70761;SDS011;58360;0.000;0.000;2023-07-09T00:27:41;12.63;;;6.93;;
70761;SDS011;58360;0.000;0.000;2023-07-09T00:30:19;10.50;;;7.05;;
70761;SDS011;58360;0.000;0.000;2023-07-09T00:32:47;12.98;;;6.88;;
70761;SDS011;58360;0.000;0.000;2023-07-09T00:35:13;12.85;;;7.47;;
70761;SDS011;58360;0.000;0.000;2023-07-09T00:37:42;13.43;;;7.97;;
70761;SDS011;58360;0.000;0.000;2023-07-09T00:40:19;9.60;;;6.68;;
70761;SDS011;58360;0.000;0.000;2023-07-09T00:42:54;11.63;;;6.47;;
70761;SDS011;58360;0.000;0.000;2023-07-09T00:45:24;13.13;;;7.68;;
70761;SDS011;58360;0.000;0.000;2023-07-09T00:52:53;14.85;;;7.38;;
70761;SDS011;58360;0.000;0.000;2023-07-09T00:55:25;11.82;;;7.28;;
70761;SDS011;58360;0.000;0.000;2023-07-09T00:57:54;10.30;;;7.00;;
70761;SDS011;58360;0.000;0.000;2023-07-09T01:00:27;12.05;;;7.10;;
70761;SDS011;58360;0.000;0.000;2023-07-09T01:03:00;10.20;;;6.90;;
70761;SDS011;58360;0.000;0.000;2023-07-09T01:05:29;13.23;;;7.07;;
70761;SDS011;58360;0.000;0.000;2023-07-09T01:07:55;13.30;;;6.65;;
70761;SDS011;58360;0.000;0.000;2023-07-09T01:10:23;10.95;;;6.70;;
70761;SDS011;58360;0.000;0.000;2023-07-09T01:12:49;9.18;;;6.13;;
70761;SDS011;58360;0.000;0.000;2023-07-09T01:15:15;11.93;;;7.32;;
70761;SDS011;58360;0.000;0.000;2023-07-09T01:17:41;8.55;;;6.50;;
70761;SDS011;58360;0.000;0.000;2023-07-09T01:20:14;13.55;;;7.05;;
70761;SDS011;58360;0.000;0.000;2023-07-09T01:22:52;11.25;;;6.90;;
70761;SDS011;58360;0.000;0.000;2023-07-09T01:25:22;12.88;;;6.72;;
70761;SDS011;58360;0.000;0.000;2023-07-09T01:27:49;10.63;;;6.88;;
70761;SDS011;58360;0.000;0.000;2023-07-09T01:32:47;9.95;;;6.07;;
70761;SDS011;58360;0.000;0.000;2023-07-09T01:35:22;10.20;;;6.10;;
70761;SDS011;58360;0.000;0.000;2023-07-09T01:37:48;11.68;;;6.00;;
70761;SDS011;58360;0.000;0.000;2023-07-09T01:40:17;11.43;;;6.68;;
70761;SDS011;58360;0.000;0.000;2023-07-09T01:42:44;10.43;;;6.50;;
70761;SDS011;58360;0.000;0.000;2023-07-09T01:45:10;11.77;;;6.25;;
70761;SDS011;58360;0.000;0.000;2023-07-09T01:47:36;10.57;;;6.75;;
70761;SDS011;58360;0.000;0.000;2023-07-09T01:50:05;11.60;;;6.88;;
70761;SDS011;58360;0.000;0.000;2023-07-09T01:52:32;14.23;;;7.60;;
70761;SDS011;58360;0.000;0.000;2023-07-09T01:54:58;11.18;;;6.82;;
70761;SDS011;58360;0.000;0.000;2023-07-09T01:57:25;13.48;;;6.80;;
70761;SDS011;58360;0.000;0.000;2023-07-09T02:00:15;10.30;;;6.95;;
70761;SDS011;58360;0.000;0.000;2023-07-09T02:02:46;13.05;;;6.93;;
70761;SDS011;58360;0.000;0.000;2023-07-09T02:05:13;14.02;;;7.20;;
70761;SDS011;58360;0.000;0.000;2023-07-09T02:07:41;12.03;;;6.77;;
70761;SDS011;58360;0.000;0.000;2023-07-09T02:10:07;10.40;;;7.18;;
70761;SDS011;58360;0.000;0.000;2023-07-09T02:12:37;13.63;;;7.80;;
70761;SDS011;58360;0.000;0.000;2023-07-09T02:15:03;10.93;;;7.28;;
70761;SDS011;58360;0.000;0.000;2023-07-09T02:17:29;10.90;;;6.88;;
70761;SDS011;58360;0.000;0.000;2023-07-09T02:19:55;11.50;;;7.30;;
70761;SDS011;58360;0.000;0.000;2023-07-09T02:22:20;11.73;;;8.13;;
70761;SDS011;58360;0.000;0.000;2023-07-09T02:24:46;12.45;;;7.55;;
70761;SDS011;58360;0.000;0.000;2023-07-09T02:27:15;13.23;;;7.50;;
70761;SDS011;58360;0.000;0.000;2023-07-09T02:32:09;13.65;;;7.68;;
70761;SDS011;58360;0.000;0.000;2023-07-09T02:34:37;13.13;;;7.15;;
70761;SDS011;58360;0.000;0.000;2023-07-09T02:37:03;11.55;;;6.82;;
70761;SDS011;58360;0.000;0.000;2023-07-09T02:39:29;12.25;;;6.63;;
70761;SDS011;58360;0.000;0.000;2023-07-09T02:44:58;12.30;;;6.97;;
70761;SDS011;58360;0.000;0.000;2023-07-09T02:47:24;11.30;;;7.05;;
70761;SDS011;58360;0.000;0.000;2023-07-09T02:49:49;11.38;;;6.50;;
70761;SDS011;58360;0.000;0.000;2023-07-09T02:52:23;10.93;;;6.57;;
70761;SDS011;58360;0.000;0.000;2023-07-09T02:58:02;15.82;;;7.57;;
70761;SDS011;58360;0.000;0.000;2023-07-09T03:00:33;14.55;;;6.90;;
70761;SDS011;58360;0.000;0.000;2023-07-09T03:06:29;11.25;;;7.05;;
70761;SDS011;58360;0.000;0.000;2023-07-09T03:08:58;9.70;;;6.82;;
70761;SDS011;58360;0.000;0.000;2023-07-09T03:14:47;13.38;;;7.15;;
70761;SDS011;58360;0.000;0.000;2023-07-09T03:32:37;14.77;;;7.43;;
70761;SDS011;58360;0.000;0.000;2023-07-09T03:37:49;12.73;;;7.15;;
70761;SDS011;58360;0.000;0.000;2023-07-09T03:40:20;17.05;;;7.47;;
70761;SDS011;58360;0.000;0.000;2023-07-09T03:46:17;11.40;;;6.88;;
70761;SDS011;58360;0.000;0.000;2023-07-09T03:52:09;11.23;;;6.75;;
70761;SDS011;58360;0.000;0.000;2023-07-09T03:54:35;11.35;;;6.93;;
70761;SDS011;58360;0.000;0.000;2023-07-09T03:57:00;11.45;;;6.78;;
70761;SDS011;58360;0.000;0.000;2023-07-09T04:02:49;10.25;;;7.10;;
70761;SDS011;58360;0.000;0.000;2023-07-09T04:08:43;10.40;;;6.43;;
70761;SDS011;58360;0.000;0.000;2023-07-09T04:14:40;12.55;;;6.40;;
70761;SDS011;58360;0.000;0.000;2023-07-09T04:17:06;19.45;;;7.30;;
70761;SDS011;58360;0.000;0.000;2023-07-09T04:19:31;12.10;;;6.72;;
70761;SDS011;58360;0.000;0.000;2023-07-09T04:21:58;10.65;;;6.65;;
70761;SDS011;58360;0.000;0.000;2023-07-09T04:34:12;12.90;;;6.50;;
70761;SDS011;58360;0.000;0.000;2023-07-09T04:36:38;11.25;;;7.03;;
70761;SDS011;58360;0.000;0.000;2023-07-09T04:39:04;10.32;;;6.43;;
70761;SDS011;58360;0.000;0.000;2023-07-09T04:44:54;12.48;;;6.55;;
70761;SDS011;58360;0.000;0.000;2023-07-09T04:47:20;11.60;;;7.05;;
70761;SDS011;58360;0.000;0.000;2023-07-09T04:49:45;11.20;;;6.18;;
70761;SDS011;58360;0.000;0.000;2023-07-09T04:52:11;11.90;;;6.63;;
70761;SDS011;58360;0.000;0.000;2023-07-09T04:58:04;9.93;;;5.47;;
70761;SDS011;58360;0.000;0.000;2023-07-09T05:09:05;12.32;;;6.07;;
70761;SDS011;58360;0.000;0.000;2023-07-09T05:11:33;13.18;;;6.28;;
70761;SDS011;58360;0.000;0.000;2023-07-09T05:13:59;12.73;;;6.78;;
70761;SDS011;58360;0.000;0.000;2023-07-09T05:16:27;11.25;;;6.22;;
70761;SDS011;58360;0.000;0.000;2023-07-09T05:18:53;11.38;;;6.40;;
70761;SDS011;58360;0.000;0.000;2023-07-09T05:21:19;9.43;;;5.60;;
70761;SDS011;58360;0.000;0.000;2023-07-09T05:23:44;11.25;;;6.25;;
70761;SDS011;58360;0.000;0.000;2023-07-09T05:26:10;10.30;;;5.97;;
70761;SDS011;58360;0.000;0.000;2023-07-09T05:28:36;11.65;;;6.50;;
70761;SDS011;58360;0.000;0.000;2023-07-09T05:31:03;10.75;;;6.07;;
70761;SDS011;58360;0.000;0.000;2023-07-09T05:33:29;12.52;;;6.22;;
70761;SDS011;58360;0.000;0.000;2023-07-09T05:35:55;10.63;;;6.38;;
70761;SDS011;58360;0.000;0.000;2023-07-09T05:38:21;11.57;;;5.93;;
70761;SDS011;58360;0.000;0.000;2023-07-09T05:40:46;12.48;;;6.22;;
70761;SDS011;58360;0.000;0.000;2023-07-09T05:43:12;14.80;;;6.50;;
70761;SDS011;58360;0.000;0.000;2023-07-09T05:45:38;15.32;;;6.43;;
70761;SDS011;58360;0.000;0.000;2023-07-09T05:48:05;12.90;;;6.28;;
70761;SDS011;58360;0.000;0.000;2023-07-09T05:50:32;13.50;;;6.78;;
70761;SDS011;58360;0.000;0.000;2023-07-09T05:52:59;11.43;;;6.03;;
70761;SDS011;58360;0.000;0.000;2023-07-09T05:55:25;10.50;;;6.20;;
70761;SDS011;58360;0.000;0.000;2023-07-09T05:57:51;22.38;;;7.18;;
70761;SDS011;58360;0.000;0.000;2023-07-09T06:00:18;11.80;;;5.80;;
70761;SDS011;58360;0.000;0.000;2023-07-09T06:02:45;8.85;;;5.95;;
70761;SDS011;58360;0.000;0.000;2023-07-09T06:05:11;14.40;;;5.80;;
70761;SDS011;58360;0.000;0.000;2023-07-09T06:07:37;16.20;;;6.10;;
70761;SDS011;58360;0.000;0.000;2023-07-09T06:10:07;11.10;;;5.95;;
70761;SDS011;58360;0.000;0.000;2023-07-09T06:12:34;11.32;;;5.80;;
70761;SDS011;58360;0.000;0.000;2023-07-09T06:15:00;11.10;;;6.03;;
70761;SDS011;58360;0.000;0.000;2023-07-09T06:17:26;11.90;;;5.82;;
70761;SDS011;58360;0.000;0.000;2023-07-09T06:19:52;12.40;;;6.28;;
70761;SDS011;58360;0.000;0.000;2023-07-09T06:22:18;9.73;;;5.65;;
70761;SDS011;58360;0.000;0.000;2023-07-09T06:24:45;9.60;;;5.72;;
70761;SDS011;58360;0.000;0.000;2023-07-09T06:27:11;14.30;;;5.97;;
70761;SDS011;58360;0.000;0.000;2023-07-09T06:29:36;17.05;;;6.15;;
70761;SDS011;58360;0.000;0.000;2023-07-09T06:32:02;12.05;;;6.57;;
70761;SDS011;58360;0.000;0.000;2023-07-09T06:34:28;11.73;;;6.47;;
70761;SDS011;58360;0.000;0.000;2023-07-09T06:36:56;20.20;;;6.60;;
70761;SDS011;58360;0.000;0.000;2023-07-09T06:39:22;13.40;;;6.88;;
70761;SDS011;58360;0.000;0.000;2023-07-09T06:41:48;14.98;;;7.07;;
70761;SDS011;58360;0.000;0.000;2023-07-09T06:44:13;11.93;;;7.35;;
70761;SDS011;58360;0.000;0.000;2023-07-09T06:46:39;11.07;;;6.72;;
70761;SDS011;58360;0.000;0.000;2023-07-09T06:49:05;14.13;;;7.07;;
70761;SDS011;58360;0.000;0.000;2023-07-09T06:51:33;14.82;;;8.40;;
70761;SDS011;58360;0.000;0.000;2023-07-09T06:53:59;12.50;;;7.07;;
70761;SDS011;58360;0.000;0.000;2023-07-09T06:56:25;13.02;;;6.57;;
70761;SDS011;58360;0.000;0.000;2023-07-09T06:58:51;14.82;;;7.13;;
70761;SDS011;58360;0.000;0.000;2023-07-09T07:01:16;16.10;;;7.85;;
70761;SDS011;58360;0.000;0.000;2023-07-09T07:03:42;14.18;;;8.85;;
70761;SDS011;58360;0.000;0.000;2023-07-09T07:06:08;13.88;;;7.78;;
70761;SDS011;58360;0.000;0.000;2023-07-09T07:08:34;18.15;;;9.63;;
70761;SDS011;58360;0.000;0.000;2023-07-09T07:11:01;16.15;;;9.13;;
70761;SDS011;58360;0.000;0.000;2023-07-09T07:13:32;17.85;;;9.48;;
70761;SDS011;58360;0.000;0.000;2023-07-09T07:16:00;15.98;;;9.40;;
70761;SDS011;58360;0.000;0.000;2023-07-09T07:18:30;12.98;;;8.95;;
70761;SDS011;58360;0.000;0.000;2023-07-09T07:20:56;16.85;;;9.27;;
70761;SDS011;58360;0.000;0.000;2023-07-09T07:23:28;16.58;;;10.15;;
70761;SDS011;58360;0.000;0.000;2023-07-09T07:25:54;16.73;;;10.40;;
70761;SDS011;58360;0.000;0.000;2023-07-09T07:28:20;14.20;;;9.07;;
70761;SDS011;58360;0.000;0.000;2023-07-09T07:30:45;15.52;;;9.50;;
70761;SDS011;58360;0.000;0.000;2023-07-09T07:33:13;14.93;;;8.77;;
70761;SDS011;58360;0.000;0.000;2023-07-09T07:35:47;19.23;;;10.25;;
70761;SDS011;58360;0.000;0.000;2023-07-09T07:38:12;14.55;;;9.93;;
70761;SDS011;58360;0.000;0.000;2023-07-09T07:40:38;14.77;;;10.13;;
70761;SDS011;58360;0.000;0.000;2023-07-09T07:43:03;14.63;;;9.27;;
70761;SDS011;58360;0.000;0.000;2023-07-09T07:45:29;14.73;;;8.60;;
70761;SDS011;58360;0.000;0.000;2023-07-09T07:47:55;14.20;;;8.77;;
70761;SDS011;58360;0.000;0.000;2023-07-09T07:50:20;19.10;;;10.93;;
70761;SDS011;58360;0.000;0.000;2023-07-09T07:52:46;16.75;;;10.05;;
70761;SDS011;58360;0.000;0.000;2023-07-09T07:55:12;18.20;;;8.88;;
70761;SDS011;58360;0.000;0.000;2023-07-09T07:57:37;11.88;;;8.85;;
70761;SDS011;58360;0.000;0.000;2023-07-09T08:00:03;15.43;;;11.10;;
70761;SDS011;58360;0.000;0.000;2023-07-09T08:02:29;12.20;;;8.82;;
70761;SDS011;58360;0.000;0.000;2023-07-09T08:04:55;18.50;;;11.05;;
70761;SDS011;58360;0.000;0.000;2023-07-09T08:07:20;13.35;;;9.15;;
70761;SDS011;58360;0.000;0.000;2023-07-09T08:09:46;15.32;;;9.57;;
70761;SDS011;58360;0.000;0.000;2023-07-09T08:12:13;19.50;;;10.38;;
70761;SDS011;58360;0.000;0.000;2023-07-09T08:14:39;14.23;;;11.43;;
70761;SDS011;58360;0.000;0.000;2023-07-09T08:17:06;15.18;;;10.70;;
70761;SDS011;58360;0.000;0.000;2023-07-09T08:19:32;15.05;;;9.40;;
70761;SDS011;58360;0.000;0.000;2023-07-09T08:22:12;13.93;;;9.45;;
70761;SDS011;58360;0.000;0.000;2023-07-09T08:24:39;11.07;;;8.05;;
70761;SDS011;58360;0.000;0.000;2023-07-09T08:27:08;15.63;;;9.15;;
70761;SDS011;58360;0.000;0.000;2023-07-09T08:29:34;11.93;;;9.15;;
70761;SDS011;58360;0.000;0.000;2023-07-09T08:32:01;18.48;;;12.50;;
70761;SDS011;58360;0.000;0.000;2023-07-09T08:34:27;14.70;;;11.30;;
70761;SDS011;58360;0.000;0.000;2023-07-09T08:36:53;17.02;;;11.45;;
70761;SDS011;58360;0.000;0.000;2023-07-09T08:39:19;17.35;;;13.63;;
70761;SDS011;58360;0.000;0.000;2023-07-09T08:41:46;15.18;;;12.70;;
70761;SDS011;58360;0.000;0.000;2023-07-09T08:44:40;16.13;;;10.77;;
70761;SDS011;58360;0.000;0.000;2023-07-09T08:49:47;19.13;;;13.25;;
70761;SDS011;58360;0.000;0.000;2023-07-09T08:52:36;19.80;;;15.23;;
70761;SDS011;58360;0.000;0.000;2023-07-09T08:55:17;18.90;;;14.57;;
70761;SDS011;58360;0.000;0.000;2023-07-09T08:57:47;15.90;;;12.60;;
70761;SDS011;58360;0.000;0.000;2023-07-09T09:03:04;17.52;;;11.68;;
70761;SDS011;58360;0.000;0.000;2023-07-09T09:05:38;16.98;;;10.82;;
70761;SDS011;58360;0.000;0.000;2023-07-09T09:08:11;13.82;;;10.70;;
70761;SDS011;58360;0.000;0.000;2023-07-09T09:13:58;17.17;;;11.32;;
70761;SDS011;58360;0.000;0.000;2023-07-09T09:16:31;17.40;;;10.73;;
70761;SDS011;58360;0.000;0.000;2023-07-09T09:19:01;13.48;;;10.75;;
70761;SDS011;58360;0.000;0.000;2023-07-09T09:21:34;13.32;;;10.40;;
70761;SDS011;58360;0.000;0.000;2023-07-09T09:24:15;11.98;;;9.07;;
70761;SDS011;58360;0.000;0.000;2023-07-09T09:26:46;13.80;;;9.88;;
70761;SDS011;58360;0.000;0.000;2023-07-09T09:29:15;14.15;;;10.73;;
70761;SDS011;58360;0.000;0.000;2023-07-09T09:31:43;14.20;;;9.20;;
70761;SDS011;58360;0.000;0.000;2023-07-09T09:34:17;12.27;;;8.23;;
70761;SDS011;58360;0.000;0.000;2023-07-09T09:36:44;16.38;;;8.95;;
70761;SDS011;58360;0.000;0.000;2023-07-09T09:39:10;13.63;;;8.18;;
70761;SDS011;58360;0.000;0.000;2023-07-09T09:41:36;11.10;;;8.55;;
70761;SDS011;58360;0.000;0.000;2023-07-09T09:44:03;11.23;;;7.05;;
70761;SDS011;58360;0.000;0.000;2023-07-09T09:46:30;9.88;;;6.60;;
70761;SDS011;58360;0.000;0.000;2023-07-09T09:49:00;10.25;;;6.28;;
70761;SDS011;58360;0.000;0.000;2023-07-09T09:51:28;8.50;;;5.13;;
70761;SDS011;58360;0.000;0.000;2023-07-09T09:53:58;11.60;;;6.07;;
70761;SDS011;58360;0.000;0.000;2023-07-09T09:56:28;13.50;;;7.38;;
70761;SDS011;58360;0.000;0.000;2023-07-09T09:58:56;13.95;;;7.53;;
70761;SDS011;58360;0.000;0.000;2023-07-09T10:01:27;12.18;;;7.22;;
70761;SDS011;58360;0.000;0.000;2023-07-09T10:03:59;12.95;;;7.75;;
70761;SDS011;58360;0.000;0.000;2023-07-09T10:06:34;9.98;;;7.47;;
70761;SDS011;58360;0.000;0.000;2023-07-09T10:09:19;16.05;;;7.43;;
70761;SDS011;58360;0.000;0.000;2023-07-09T10:23:13;12.48;;;6.30;;
70761;SDS011;58360;0.000;0.000;2023-07-09T10:26:08;11.00;;;5.90;;
70761;SDS011;58360;0.000;0.000;2023-07-09T10:39:23;12.77;;;6.78;;
70761;SDS011;58360;0.000;0.000;2023-07-09T10:41:52;11.63;;;7.25;;
70761;SDS011;58360;0.000;0.000;2023-07-09T10:44:24;18.27;;;8.68;;
70761;SDS011;58360;0.000;0.000;2023-07-09T10:46:57;15.10;;;7.68;;
70761;SDS011;58360;0.000;0.000;2023-07-09T10:49:30;13.40;;;7.18;;
70761;SDS011;58360;0.000;0.000;2023-07-09T10:54:42;11.90;;;8.25;;
70761;SDS011;58360;0.000;0.000;2023-07-09T10:57:39;13.90;;;7.95;;
70761;SDS011;58360;0.000;0.000;2023-07-09T11:02:40;11.15;;;6.50;;
70761;SDS011;58360;0.000;0.000;2023-07-09T11:05:08;12.00;;;6.20;;
70761;SDS011;58360;0.000;0.000;2023-07-09T11:07:36;12.90;;;7.55;;
70761;SDS011;58360;0.000;0.000;2023-07-09T11:10:29;12.40;;;6.97;;
70761;SDS011;58360;0.000;0.000;2023-07-09T11:13:16;17.38;;;8.48;;
70761;SDS011;58360;0.000;0.000;2023-07-09T11:15:51;17.63;;;8.55;;
70761;SDS011;58360;0.000;0.000;2023-07-09T11:18:40;14.93;;;8.52;;
70761;SDS011;58360;0.000;0.000;2023-07-09T11:21:06;15.60;;;7.30;;
70761;SDS011;58360;0.000;0.000;2023-07-09T11:23:43;10.30;;;6.80;;
70761;SDS011;58360;0.000;0.000;2023-07-09T11:28:55;13.05;;;8.07;;
70761;SDS011;58360;0.000;0.000;2023-07-09T11:31:42;11.85;;;7.03;;
70761;SDS011;58360;0.000;0.000;2023-07-09T11:39:30;12.57;;;6.57;;
70761;SDS011;58360;0.000;0.000;2023-07-09T11:42:23;13.35;;;6.15;;
70761;SDS011;58360;0.000;0.000;2023-07-09T11:44:51;12.02;;;6.38;;
70761;SDS011;58360;0.000;0.000;2023-07-09T11:47:24;13.95;;;7.20;;
70761;SDS011;58360;0.000;0.000;2023-07-09T11:49:57;9.90;;;6.38;;
70761;SDS011;58360;0.000;0.000;2023-07-09T11:52:37;8.80;;;5.57;;
70761;SDS011;58360;0.000;0.000;2023-07-09T11:55:15;9.15;;;5.18;;
70761;SDS011;58360;0.000;0.000;2023-07-09T11:57:48;9.98;;;5.03;;
70761;SDS011;58360;0.000;0.000;2023-07-09T12:00:20;13.07;;;4.75;;
70761;SDS011;58360;0.000;0.000;2023-07-09T12:02:46;8.73;;;4.50;;
70761;SDS011;58360;0.000;0.000;2023-07-09T12:05:13;8.68;;;4.60;;
70761;SDS011;58360;0.000;0.000;2023-07-09T12:07:43;10.65;;;4.47;;
70761;SDS011;58360;0.000;0.000;2023-07-09T12:10:19;8.50;;;4.70;;
70761;SDS011;58360;0.000;0.000;2023-07-09T12:12:55;14.68;;;4.55;;
70761;SDS011;58360;0.000;0.000;2023-07-09T12:15:26;7.77;;;4.33;;
70761;SDS011;58360;0.000;0.000;2023-07-09T12:18:03;8.52;;;4.55;;
70761;SDS011;58360;0.000;0.000;2023-07-09T12:20:36;8.18;;;4.43;;
70761;SDS011;58360;0.000;0.000;2023-07-09T12:26:01;10.77;;;5.55;;
70761;SDS011;58360;0.000;0.000;2023-07-09T12:28:28;7.85;;;4.03;;
70761;SDS011;58360;0.000;0.000;2023-07-09T12:30:54;11.30;;;5.20;;
70761;SDS011;58360;0.000;0.000;2023-07-09T12:33:21;11.05;;;4.30;;
70761;SDS011;58360;0.000;0.000;2023-07-09T12:36:00;8.63;;;4.03;;
70761;SDS011;58360;0.000;0.000;2023-07-09T12:38:29;8.68;;;4.43;;
70761;SDS011;58360;0.000;0.000;2023-07-09T12:41:03;9.80;;;4.30;;
70761;SDS011;58360;0.000;0.000;2023-07-09T12:43:30;8.93;;;4.40;;
70761;SDS011;58360;0.000;0.000;2023-07-09T12:45:58;9.95;;;4.50;;
70761;SDS011;58360;0.000;0.000;2023-07-09T12:48:25;10.02;;;4.45;;
70761;SDS011;58360;0.000;0.000;2023-07-09T12:50:56;9.35;;;4.30;;
70761;SDS011;58360;0.000;0.000;2023-07-09T12:53:24;9.98;;;4.97;;
70761;SDS011;58360;0.000;0.000;2023-07-09T12:55:54;19.30;;;6.15;;
70761;SDS011;58360;0.000;0.000;2023-07-09T12:58:25;27.90;;;6.50;;
70761;SDS011;58360;0.000;0.000;2023-07-09T13:01:34;17.33;;;7.72;;
70761;SDS011;58360;0.000;0.000;2023-07-09T13:04:03;15.73;;;6.22;;
70761;SDS011;58360;0.000;0.000;2023-07-09T13:06:29;17.10;;;7.35;;
70761;SDS011;58360;0.000;0.000;2023-07-09T13:23:26;19.65;;;7.90;;
70761;SDS011;58360;0.000;0.000;2023-07-09T13:25:53;13.15;;;7.50;;
70761;SDS011;58360;0.000;0.000;2023-07-09T13:30:51;15.13;;;7.00;;
70761;SDS011;58360;0.000;0.000;2023-07-09T13:33:18;15.73;;;7.53;;
70761;SDS011;58360;0.000;0.000;2023-07-09T13:35:45;12.80;;;6.50;;
70761;SDS011;58360;0.000;0.000;2023-07-09T13:38:14;12.18;;;6.68;;
70761;SDS011;58360;0.000;0.000;2023-07-09T13:40:40;12.30;;;5.55;;
70761;SDS011;58360;0.000;0.000;2023-07-09T13:43:09;10.65;;;5.28;;
70761;SDS011;58360;0.000;0.000;2023-07-09T13:48:57;9.98;;;4.90;;
70761;SDS011;58360;0.000;0.000;2023-07-09T13:51:23;11.50;;;5.10;;
70761;SDS011;58360;0.000;0.000;2023-07-09T13:53:50;11.63;;;4.85;;
70761;SDS011;58360;0.000;0.000;2023-07-09T13:56:18;10.73;;;4.28;;
70761;SDS011;58360;0.000;0.000;2023-07-09T13:58:44;9.57;;;4.38;;
70761;SDS011;58360;0.000;0.000;2023-07-09T14:01:14;9.30;;;4.18;;
70761;SDS011;58360;0.000;0.000;2023-07-09T14:03:43;9.18;;;4.57;;
70761;SDS011;58360;0.000;0.000;2023-07-09T14:06:12;7.57;;;4.00;;
70761;SDS011;58360;0.000;0.000;2023-07-09T14:21:25;12.20;;;5.55;;
70761;SDS011;58360;0.000;0.000;2023-07-09T14:23:51;11.38;;;5.65;;
70761;SDS011;58360;0.000;0.000;2023-07-09T14:26:18;7.60;;;4.38;;
70761;SDS011;58360;0.000;0.000;2023-07-09T14:28:44;8.55;;;4.28;;
70761;SDS011;58360;0.000;0.000;2023-07-09T14:31:13;11.30;;;4.75;;
70761;SDS011;58360;0.000;0.000;2023-07-09T14:33:46;10.82;;;5.38;;
70761;SDS011;58360;0.000;0.000;2023-07-09T14:36:12;10.23;;;4.57;;
70761;SDS011;58360;0.000;0.000;2023-07-09T14:38:37;17.67;;;5.40;;
70761;SDS011;58360;0.000;0.000;2023-07-09T14:41:04;14.93;;;5.07;;
70761;SDS011;58360;0.000;0.000;2023-07-09T14:43:46;11.85;;;5.28;;
70761;SDS011;58360;0.000;0.000;2023-07-09T14:46:11;11.63;;;5.03;;
70761;SDS011;58360;0.000;0.000;2023-07-09T14:48:37;12.35;;;4.88;;
70761;SDS011;58360;0.000;0.000;2023-07-09T14:51:07;14.75;;;5.13;;
70761;SDS011;58360;0.000;0.000;2023-07-09T14:53:43;10.32;;;5.38;;
70761;SDS011;58360;0.000;0.000;2023-07-09T14:56:14;11.32;;;4.43;;
70761;SDS011;58360;0.000;0.000;2023-07-09T14:58:40;10.50;;;4.82;;
70761;SDS011;58360;0.000;0.000;2023-07-09T15:01:10;9.98;;;4.40;;
70761;SDS011;58360;0.000;0.000;2023-07-09T15:03:39;11.57;;;4.70;;
70761;SDS011;58360;0.000;0.000;2023-07-09T15:06:05;10.40;;;5.70;;
70761;SDS011;58360;0.000;0.000;2023-07-09T15:08:32;10.43;;;4.72;;
70761;SDS011;58360;0.000;0.000;2023-07-09T15:10:59;9.95;;;4.50;;
70761;SDS011;58360;0.000;0.000;2023-07-09T15:13:33;8.70;;;5.05;;
70761;SDS011;58360;0.000;0.000;2023-07-09T15:16:01;10.05;;;4.70;;
70761;SDS011;58360;0.000;0.000;2023-07-09T15:18:28;11.63;;;5.03;;
70761;SDS011;58360;0.000;0.000;2023-07-09T15:20:55;13.38;;;5.43;;
70761;SDS011;58360;0.000;0.000;2023-07-09T15:23:26;9.95;;;4.60;;
70761;SDS011;58360;0.000;0.000;2023-07-09T15:25:53;11.88;;;4.90;;
70761;SDS011;58360;0.000;0.000;2023-07-09T15:28:19;11.80;;;4.80;;
70761;SDS011;58360;0.000;0.000;2023-07-09T15:30:45;10.20;;;4.80;;
70761;SDS011;58360;0.000;0.000;2023-07-09T15:33:15;10.57;;;4.88;;
70761;SDS011;58360;0.000;0.000;2023-07-09T15:35:43;9.55;;;4.65;;
70761;SDS011;58360;0.000;0.000;2023-07-09T15:40:42;11.68;;;5.22;;
70761;SDS011;58360;0.000;0.000;2023-07-09T15:43:08;10.13;;;5.32;;
70761;SDS011;58360;0.000;0.000;2023-07-09T15:45:42;10.35;;;4.60;;
70761;SDS011;58360;0.000;0.000;2023-07-09T15:50:50;11.13;;;5.70;;
70761;SDS011;58360;0.000;0.000;2023-07-09T15:53:16;12.05;;;4.82;;
70761;SDS011;58360;0.000;0.000;2023-07-09T15:55:46;9.85;;;5.13;;
70761;SDS011;58360;0.000;0.000;2023-07-09T15:58:17;10.93;;;5.28;;
70761;SDS011;58360;0.000;0.000;2023-07-09T16:00:49;8.57;;;5.53;;
70761;SDS011;58360;0.000;0.000;2023-07-09T16:03:15;12.23;;;5.40;;
70761;SDS011;58360;0.000;0.000;2023-07-09T16:05:40;10.00;;;5.43;;
70761;SDS011;58360;0.000;0.000;2023-07-09T16:08:06;11.30;;;6.10;;
70761;SDS011;58360;0.000;0.000;2023-07-09T16:10:33;11.85;;;6.20;;
70761;SDS011;58360;0.000;0.000;2023-07-09T16:12:58;11.18;;;6.03;;
70761;SDS011;58360;0.000;0.000;2023-07-09T16:15:24;16.85;;;7.18;;
70761;SDS011;58360;0.000;0.000;2023-07-09T16:17:50;11.32;;;5.70;;
70761;SDS011;58360;0.000;0.000;2023-07-09T16:20:21;12.13;;;7.10;;
70761;SDS011;58360;0.000;0.000;2023-07-09T16:22:52;11.85;;;6.65;;
70761;SDS011;58360;0.000;0.000;2023-07-09T16:25:22;15.07;;;9.02;;
70761;SDS011;58360;0.000;0.000;2023-07-09T16:27:51;16.93;;;9.13;;
70761;SDS011;58360;0.000;0.000;2023-07-09T16:32:44;16.73;;;9.32;;
70761;SDS011;58360;0.000;0.000;2023-07-09T16:35:15;15.48;;;9.07;;
70761;SDS011;58360;0.000;0.000;2023-07-09T16:37:46;15.13;;;8.13;;
70761;SDS011;58360;0.000;0.000;2023-07-09T16:42:43;20.48;;;8.10;;
70761;SDS011;58360;0.000;0.000;2023-07-09T16:45:10;12.32;;;7.50;;
70761;SDS011;58360;0.000;0.000;2023-07-09T16:47:37;13.48;;;7.53;;
70761;SDS011;58360;0.000;0.000;2023-07-09T16:50:03;9.77;;;5.78;;
70761;SDS011;58360;0.000;0.000;2023-07-09T16:52:29;11.18;;;6.05;;
70761;SDS011;58360;0.000;0.000;2023-07-09T16:54:55;12.00;;;7.05;;
70761;SDS011;58360;0.000;0.000;2023-07-09T16:57:24;9.45;;;6.43;;
70761;SDS011;58360;0.000;0.000;2023-07-09T16:59:52;11.10;;;6.30;;
70761;SDS011;58360;0.000;0.000;2023-07-09T17:02:29;11.40;;;6.10;;
70761;SDS011;58360;0.000;0.000;2023-07-09T17:04:58;10.68;;;6.05;;
70761;SDS011;58360;0.000;0.000;2023-07-09T17:07:25;8.93;;;6.00;;
70761;SDS011;58360;0.000;0.000;2023-07-09T17:09:54;10.90;;;5.18;;
70761;SDS011;58360;0.000;0.000;2023-07-09T17:12:20;11.95;;;5.50;;
70761;SDS011;58360;0.000;0.000;2023-07-09T17:14:46;8.52;;;4.30;;
70761;SDS011;58360;0.000;0.000;2023-07-09T17:17:13;8.52;;;3.85;;
70761;SDS011;58360;0.000;0.000;2023-07-09T17:19:43;7.07;;;3.97;;
70761;SDS011;58360;0.000;0.000;2023-07-09T17:22:18;9.40;;;4.53;;
70761;SDS011;58360;0.000;0.000;2023-07-09T17:34:48;12.45;;;4.60;;
70761;SDS011;58360;0.000;0.000;2023-07-09T17:37:14;8.60;;;4.05;;
70761;SDS011;58360;0.000;0.000;2023-07-09T17:39:41;7.10;;;3.50;;
70761;SDS011;58360;0.000;0.000;2023-07-09T17:42:17;8.27;;;3.30;;
70761;SDS011;58360;0.000;0.000;2023-07-09T17:44:44;10.60;;;4.28;;
70761;SDS011;58360;0.000;0.000;2023-07-09T17:47:13;9.18;;;3.58;;
70761;SDS011;58360;0.000;0.000;2023-07-09T17:49:43;7.47;;;3.67;;
70761;SDS011;58360;0.000;0.000;2023-07-09T17:52:16;7.55;;;3.90;;
70761;SDS011;58360;0.000;0.000;2023-07-09T17:54:43;6.60;;;3.70;;
70761;SDS011;58360;0.000;0.000;2023-07-09T17:57:25;7.30;;;3.45;;
70761;SDS011;58360;0.000;0.000;2023-07-09T18:06:34;8.63;;;3.45;;
70761;SDS011;58360;0.000;0.000;2023-07-09T18:09:00;9.80;;;3.55;;